Terminal Aerodrome Forecast
Issued by NWS

Home | Current Version | Previous Version | Text Only | Print | Product List | Glossary On
Versions: 1 2 3 4 5 6 7 8 9 10 11 12 13 14
000
FTUS45 KTFX 252328
TAFLWT
TAF
KLWT 252328Z 2600/2624 VRB06KT P6SM VCTS SCT080CB
      TEMPO 2601/2605 VRB20G35KT -TSRA BKN050CB
     FM260500 12009KT P6SM FEW080 SCT150
     FM261800 VRB06KT P6SM SCT080
     FM262200 26007KT P6SM VCTS SCT060CB BKN100=

USA.gov is the U.S. government's official web portal to all federal, state and local government web resources and services.